sensor_id;sensor_type;location;lat;lon;timestamp;P1;durP1;ratioP1;P2;durP2;ratioP2
29576;SDS011;16509;53.862;10.672;2022-08-19T00:00:19;22.83;;;13.45;;
29576;SDS011;16509;53.862;10.672;2022-08-19T00:02:45;26.33;;;14.32;;
29576;SDS011;16509;53.862;10.672;2022-08-19T00:05:12;24.52;;;13.80;;
29576;SDS011;16509;53.862;10.672;2022-08-19T00:07:39;27.02;;;15.70;;
29576;SDS011;16509;53.862;10.672;2022-08-19T00:10:06;25.85;;;14.52;;
29576;SDS011;16509;53.862;10.672;2022-08-19T00:12:33;28.17;;;15.25;;
29576;SDS011;16509;53.862;10.672;2022-08-19T00:14:59;27.48;;;15.43;;
29576;SDS011;16509;53.862;10.672;2022-08-19T00:17:25;26.88;;;16.20;;
29576;SDS011;16509;53.862;10.672;2022-08-19T00:19:50;25.23;;;13.75;;
29576;SDS011;16509;53.862;10.672;2022-08-19T00:22:16;26.85;;;15.18;;
29576;SDS011;16509;53.862;10.672;2022-08-19T00:24:43;28.67;;;16.80;;
29576;SDS011;16509;53.862;10.672;2022-08-19T00:27:10;28.95;;;15.70;;
29576;SDS011;16509;53.862;10.672;2022-08-19T00:29:36;31.75;;;16.50;;
29576;SDS011;16509;53.862;10.672;2022-08-19T00:32:03;33.50;;;17.83;;
29576;SDS011;16509;53.862;10.672;2022-08-19T00:34:29;28.30;;;16.15;;
29576;SDS011;16509;53.862;10.672;2022-08-19T00:36:55;32.22;;;18.02;;
29576;SDS011;16509;53.862;10.672;2022-08-19T00:39:21;27.83;;;16.25;;
29576;SDS011;16509;53.862;10.672;2022-08-19T00:41:48;32.45;;;16.20;;
29576;SDS011;16509;53.862;10.672;2022-08-19T00:46:44;25.75;;;13.98;;
29576;SDS011;16509;53.862;10.672;2022-08-19T00:49:13;28.95;;;14.57;;
29576;SDS011;16509;53.862;10.672;2022-08-19T00:51:42;30.08;;;17.38;;
29576;SDS011;16509;53.862;10.672;2022-08-19T00:54:11;34.67;;;14.73;;
29576;SDS011;16509;53.862;10.672;2022-08-19T00:56:37;27.25;;;13.40;;
29576;SDS011;16509;53.862;10.672;2022-08-19T00:59:03;31.73;;;16.45;;
29576;SDS011;16509;53.862;10.672;2022-08-19T01:01:34;33.22;;;16.00;;
29576;SDS011;16509;53.862;10.672;2022-08-19T01:04:04;27.65;;;14.73;;
29576;SDS011;16509;53.862;10.672;2022-08-19T01:06:30;28.65;;;14.65;;
29576;SDS011;16509;53.862;10.672;2022-08-19T01:08:57;28.92;;;15.63;;
29576;SDS011;16509;53.862;10.672;2022-08-19T01:11:24;37.40;;;16.67;;
29576;SDS011;16509;53.862;10.672;2022-08-19T01:13:52;28.95;;;15.00;;
29576;SDS011;16509;53.862;10.672;2022-08-19T01:16:19;30.35;;;15.20;;
29576;SDS011;16509;53.862;10.672;2022-08-19T01:18:47;30.63;;;15.35;;
29576;SDS011;16509;53.862;10.672;2022-08-19T01:21:47;31.63;;;14.15;;
29576;SDS011;16509;53.862;10.672;2022-08-19T01:24:10;24.97;;;13.97;;
29576;SDS011;16509;53.862;10.672;2022-08-19T01:26:40;24.05;;;14.63;;
29576;SDS011;16509;53.862;10.672;2022-08-19T01:29:08;24.08;;;14.27;;
29576;SDS011;16509;53.862;10.672;2022-08-19T01:31:35;30.25;;;13.85;;
29576;SDS011;16509;53.862;10.672;2022-08-19T01:34:02;25.67;;;14.50;;
29576;SDS011;16509;53.862;10.672;2022-08-19T01:36:32;21.88;;;13.75;;
29576;SDS011;16509;53.862;10.672;2022-08-19T01:39:01;28.77;;;13.98;;
29576;SDS011;16509;53.862;10.672;2022-08-19T01:41:28;25.35;;;13.68;;
29576;SDS011;16509;53.862;10.672;2022-08-19T01:43:54;29.00;;;14.52;;
29576;SDS011;16509;53.862;10.672;2022-08-19T01:46:21;30.83;;;15.52;;
29576;SDS011;16509;53.862;10.672;2022-08-19T01:48:47;30.42;;;15.05;;
29576;SDS011;16509;53.862;10.672;2022-08-19T01:51:12;27.15;;;14.93;;
29576;SDS011;16509;53.862;10.672;2022-08-19T01:53:38;31.30;;;14.90;;
29576;SDS011;16509;53.862;10.672;2022-08-19T01:56:05;26.27;;;13.07;;
29576;SDS011;16509;53.862;10.672;2022-08-19T01:58:32;27.67;;;13.55;;
29576;SDS011;16509;53.862;10.672;2022-08-19T02:01:02;24.40;;;14.18;;
29576;SDS011;16509;53.862;10.672;2022-08-19T02:03:29;26.48;;;12.93;;
29576;SDS011;16509;53.862;10.672;2022-08-19T02:05:55;24.58;;;12.55;;
29576;SDS011;16509;53.862;10.672;2022-08-19T02:08:22;29.95;;;16.17;;
29576;SDS011;16509;53.862;10.672;2022-08-19T02:10:48;28.85;;;14.13;;
29576;SDS011;16509;53.862;10.672;2022-08-19T02:13:14;27.98;;;14.27;;
29576;SDS011;16509;53.862;10.672;2022-08-19T02:15:40;25.30;;;13.10;;
29576;SDS011;16509;53.862;10.672;2022-08-19T02:18:06;23.00;;;14.70;;
29576;SDS011;16509;53.862;10.672;2022-08-19T02:20:33;28.20;;;13.98;;
29576;SDS011;16509;53.862;10.672;2022-08-19T02:22:59;26.38;;;13.43;;
29576;SDS011;16509;53.862;10.672;2022-08-19T02:25:26;22.13;;;12.52;;
29576;SDS011;16509;53.862;10.672;2022-08-19T02:27:51;24.13;;;12.98;;
29576;SDS011;16509;53.862;10.672;2022-08-19T02:30:17;28.20;;;13.77;;
29576;SDS011;16509;53.862;10.672;2022-08-19T02:32:44;23.50;;;13.25;;
29576;SDS011;16509;53.862;10.672;2022-08-19T02:35:09;23.52;;;12.65;;
29576;SDS011;16509;53.862;10.672;2022-08-19T02:37:36;30.00;;;14.27;;
29576;SDS011;16509;53.862;10.672;2022-08-19T02:40:20;33.22;;;13.07;;
29576;SDS011;16509;53.862;10.672;2022-08-19T02:42:46;25.75;;;13.38;;
29576;SDS011;16509;53.862;10.672;2022-08-19T02:45:12;28.35;;;13.88;;
29576;SDS011;16509;53.862;10.672;2022-08-19T02:47:39;29.52;;;13.50;;
29576;SDS011;16509;53.862;10.672;2022-08-19T02:50:05;26.45;;;14.15;;
29576;SDS011;16509;53.862;10.672;2022-08-19T02:52:31;31.48;;;14.13;;
29576;SDS011;16509;53.862;10.672;2022-08-19T02:54:58;27.05;;;12.85;;
29576;SDS011;16509;53.862;10.672;2022-08-19T02:57:25;25.83;;;12.98;;
29576;SDS011;16509;53.862;10.672;2022-08-19T02:59:51;33.05;;;13.38;;
29576;SDS011;16509;53.862;10.672;2022-08-19T03:02:17;31.00;;;13.55;;
29576;SDS011;16509;53.862;10.672;2022-08-19T03:04:42;31.33;;;13.13;;
29576;SDS011;16509;53.862;10.672;2022-08-19T03:07:09;24.90;;;12.45;;
29576;SDS011;16509;53.862;10.672;2022-08-19T03:09:38;33.13;;;14.70;;
29576;SDS011;16509;53.862;10.672;2022-08-19T03:12:04;23.98;;;12.52;;
29576;SDS011;16509;53.862;10.672;2022-08-19T03:14:30;34.00;;;12.35;;
29576;SDS011;16509;53.862;10.672;2022-08-19T03:16:56;26.65;;;14.07;;
29576;SDS011;16509;53.862;10.672;2022-08-19T03:19:22;26.65;;;12.77;;
29576;SDS011;16509;53.862;10.672;2022-08-19T03:21:49;24.02;;;14.07;;
29576;SDS011;16509;53.862;10.672;2022-08-19T03:24:15;24.20;;;12.27;;
29576;SDS011;16509;53.862;10.672;2022-08-19T03:26:44;24.83;;;11.73;;
29576;SDS011;16509;53.862;10.672;2022-08-19T03:29:12;26.33;;;12.77;;
29576;SDS011;16509;53.862;10.672;2022-08-19T03:31:38;22.63;;;11.75;;
29576;SDS011;16509;53.862;10.672;2022-08-19T03:34:05;24.10;;;12.02;;
29576;SDS011;16509;53.862;10.672;2022-08-19T03:36:32;23.10;;;11.95;;
29576;SDS011;16509;53.862;10.672;2022-08-19T03:38:59;20.60;;;12.32;;
29576;SDS011;16509;53.862;10.672;2022-08-19T03:41:26;26.23;;;11.25;;
29576;SDS011;16509;53.862;10.672;2022-08-19T03:43:55;19.85;;;11.68;;
29576;SDS011;16509;53.862;10.672;2022-08-19T03:46:22;28.48;;;13.38;;
29576;SDS011;16509;53.862;10.672;2022-08-19T03:48:51;25.73;;;12.18;;
29576;SDS011;16509;53.862;10.672;2022-08-19T03:51:29;25.65;;;12.27;;
29576;SDS011;16509;53.862;10.672;2022-08-19T03:53:57;20.40;;;11.80;;
29576;SDS011;16509;53.862;10.672;2022-08-19T03:56:24;20.65;;;12.27;;
29576;SDS011;16509;53.862;10.672;2022-08-19T03:58:52;22.90;;;11.43;;
29576;SDS011;16509;53.862;10.672;2022-08-19T04:01:19;24.63;;;12.27;;
29576;SDS011;16509;53.862;10.672;2022-08-19T04:03:46;20.15;;;11.88;;
29576;SDS011;16509;53.862;10.672;2022-08-19T04:06:34;19.25;;;11.95;;
29576;SDS011;16509;53.862;10.672;2022-08-19T04:09:01;19.58;;;11.85;;
29576;SDS011;16509;53.862;10.672;2022-08-19T04:11:30;24.30;;;11.82;;
29576;SDS011;16509;53.862;10.672;2022-08-19T04:14:08;25.30;;;12.70;;
29576;SDS011;16509;53.862;10.672;2022-08-19T04:16:35;19.38;;;12.48;;
29576;SDS011;16509;53.862;10.672;2022-08-19T04:19:02;28.48;;;12.65;;
29576;SDS011;16509;53.862;10.672;2022-08-19T04:21:29;22.48;;;11.95;;
29576;SDS011;16509;53.862;10.672;2022-08-19T04:23:55;26.17;;;13.50;;
29576;SDS011;16509;53.862;10.672;2022-08-19T04:26:23;23.65;;;11.93;;
29576;SDS011;16509;53.862;10.672;2022-08-19T04:28:52;24.30;;;13.82;;
29576;SDS011;16509;53.862;10.672;2022-08-19T04:31:20;27.48;;;14.10;;
29576;SDS011;16509;53.862;10.672;2022-08-19T04:33:51;25.13;;;12.90;;
29576;SDS011;16509;53.862;10.672;2022-08-19T04:36:29;25.48;;;13.57;;
29576;SDS011;16509;53.862;10.672;2022-08-19T04:38:57;29.85;;;13.57;;
29576;SDS011;16509;53.862;10.672;2022-08-19T04:41:26;29.33;;;13.23;;
29576;SDS011;16509;53.862;10.672;2022-08-19T04:44:10;32.80;;;14.73;;
29576;SDS011;16509;53.862;10.672;2022-08-19T04:46:37;29.63;;;14.10;;
29576;SDS011;16509;53.862;10.672;2022-08-19T04:49:04;31.50;;;14.25;;
29576;SDS011;16509;53.862;10.672;2022-08-19T04:51:31;34.38;;;14.77;;
29576;SDS011;16509;53.862;10.672;2022-08-19T04:53:58;27.35;;;13.50;;
29576;SDS011;16509;53.862;10.672;2022-08-19T04:56:25;27.17;;;15.18;;
29576;SDS011;16509;53.862;10.672;2022-08-19T04:58:52;30.67;;;14.07;;
29576;SDS011;16509;53.862;10.672;2022-08-19T05:01:20;27.70;;;13.35;;
29576;SDS011;16509;53.862;10.672;2022-08-19T05:03:49;31.10;;;14.95;;
29576;SDS011;16509;53.862;10.672;2022-08-19T05:06:15;30.33;;;15.13;;
29576;SDS011;16509;53.862;10.672;2022-08-19T05:08:42;31.55;;;14.23;;
29576;SDS011;16509;53.862;10.672;2022-08-19T05:13:39;37.75;;;15.93;;
29576;SDS011;16509;53.862;10.672;2022-08-19T05:16:05;30.55;;;15.18;;
29576;SDS011;16509;53.862;10.672;2022-08-19T05:18:31;30.38;;;15.48;;
29576;SDS011;16509;53.862;10.672;2022-08-19T05:21:17;32.70;;;15.82;;
29576;SDS011;16509;53.862;10.672;2022-08-19T05:24:02;32.53;;;15.38;;
29576;SDS011;16509;53.862;10.672;2022-08-19T05:26:33;35.40;;;15.88;;
29576;SDS011;16509;53.862;10.672;2022-08-19T05:28:59;29.73;;;16.45;;
29576;SDS011;16509;53.862;10.672;2022-08-19T05:31:24;39.55;;;19.40;;
29576;SDS011;16509;53.862;10.672;2022-08-19T05:33:50;32.88;;;16.90;;
29576;SDS011;16509;53.862;10.672;2022-08-19T05:36:15;29.13;;;16.25;;
29576;SDS011;16509;53.862;10.672;2022-08-19T05:38:41;35.75;;;16.63;;
29576;SDS011;16509;53.862;10.672;2022-08-19T05:41:07;35.45;;;17.02;;
29576;SDS011;16509;53.862;10.672;2022-08-19T05:43:34;28.00;;;16.30;;
29576;SDS011;16509;53.862;10.672;2022-08-19T05:45:59;34.75;;;17.55;;
29576;SDS011;16509;53.862;10.672;2022-08-19T05:48:25;33.83;;;17.00;;
29576;SDS011;16509;53.862;10.672;2022-08-19T05:50:51;29.05;;;15.60;;
29576;SDS011;16509;53.862;10.672;2022-08-19T05:53:17;29.73;;;15.73;;
29576;SDS011;16509;53.862;10.672;2022-08-19T05:55:43;31.23;;;16.20;;
29576;SDS011;16509;53.862;10.672;2022-08-19T05:58:08;33.30;;;16.63;;
29576;SDS011;16509;53.862;10.672;2022-08-19T06:00:34;36.42;;;17.08;;
29576;SDS011;16509;53.862;10.672;2022-08-19T06:03:01;38.85;;;16.77;;
29576;SDS011;16509;53.862;10.672;2022-08-19T06:05:31;34.97;;;15.93;;
29576;SDS011;16509;53.862;10.672;2022-08-19T06:07:57;33.20;;;14.40;;
29576;SDS011;16509;53.862;10.672;2022-08-19T06:10:23;35.88;;;17.08;;
29576;SDS011;16509;53.862;10.672;2022-08-19T06:12:51;31.38;;;15.55;;
29576;SDS011;16509;53.862;10.672;2022-08-19T06:15:17;34.22;;;16.63;;
29576;SDS011;16509;53.862;10.672;2022-08-19T06:17:42;41.50;;;18.67;;
29576;SDS011;16509;53.862;10.672;2022-08-19T06:20:13;40.28;;;17.13;;
29576;SDS011;16509;53.862;10.672;2022-08-19T06:22:43;42.30;;;17.67;;
29576;SDS011;16509;53.862;10.672;2022-08-19T06:25:12;39.55;;;17.48;;
29576;SDS011;16509;53.862;10.672;2022-08-19T06:27:39;41.88;;;17.80;;
29576;SDS011;16509;53.862;10.672;2022-08-19T06:30:06;38.13;;;18.02;;
29576;SDS011;16509;53.862;10.672;2022-08-19T06:32:32;34.95;;;17.25;;
29576;SDS011;16509;53.862;10.672;2022-08-19T06:34:57;38.08;;;17.70;;
29576;SDS011;16509;53.862;10.672;2022-08-19T06:37:23;37.22;;;18.23;;
29576;SDS011;16509;53.862;10.672;2022-08-19T06:39:49;35.72;;;16.52;;
29576;SDS011;16509;53.862;10.672;2022-08-19T06:42:15;47.15;;;18.02;;
29576;SDS011;16509;53.862;10.672;2022-08-19T06:44:44;40.22;;;17.48;;
29576;SDS011;16509;53.862;10.672;2022-08-19T06:47:12;42.08;;;18.85;;
29576;SDS011;16509;53.862;10.672;2022-08-19T06:49:39;37.97;;;17.23;;
29576;SDS011;16509;53.862;10.672;2022-08-19T06:52:05;35.60;;;18.23;;
29576;SDS011;16509;53.862;10.672;2022-08-19T06:54:32;36.75;;;17.17;;
29576;SDS011;16509;53.862;10.672;2022-08-19T06:56:58;38.42;;;18.17;;
29576;SDS011;16509;53.862;10.672;2022-08-19T06:59:27;38.92;;;17.90;;
29576;SDS011;16509;53.862;10.672;2022-08-19T07:01:54;39.80;;;17.60;;
29576;SDS011;16509;53.862;10.672;2022-08-19T07:04:25;37.08;;;16.17;;
29576;SDS011;16509;53.862;10.672;2022-08-19T07:06:57;40.80;;;17.42;;
29576;SDS011;16509;53.862;10.672;2022-08-19T07:09:25;49.70;;;18.02;;
29576;SDS011;16509;53.862;10.672;2022-08-19T07:11:52;41.00;;;17.08;;
29576;SDS011;16509;53.862;10.672;2022-08-19T07:14:19;40.13;;;16.38;;
29576;SDS011;16509;53.862;10.672;2022-08-19T07:16:48;44.42;;;18.27;;
29576;SDS011;16509;53.862;10.672;2022-08-19T07:19:15;35.92;;;16.83;;
29576;SDS011;16509;53.862;10.672;2022-08-19T07:21:42;40.75;;;17.88;;
29576;SDS011;16509;53.862;10.672;2022-08-19T07:24:08;35.08;;;17.23;;
29576;SDS011;16509;53.862;10.672;2022-08-19T07:26:37;40.50;;;18.20;;
29576;SDS011;16509;53.862;10.672;2022-08-19T07:29:04;43.22;;;18.30;;
29576;SDS011;16509;53.862;10.672;2022-08-19T07:31:31;47.13;;;19.08;;
29576;SDS011;16509;53.862;10.672;2022-08-19T07:34:00;55.05;;;20.17;;
29576;SDS011;16509;53.862;10.672;2022-08-19T07:36:27;43.60;;;19.40;;
29576;SDS011;16509;53.862;10.672;2022-08-19T07:38:57;56.63;;;21.38;;
29576;SDS011;16509;53.862;10.672;2022-08-19T07:41:25;48.25;;;18.65;;
29576;SDS011;16509;53.862;10.672;2022-08-19T07:43:53;50.10;;;20.17;;
29576;SDS011;16509;53.862;10.672;2022-08-19T07:46:19;58.38;;;22.17;;
29576;SDS011;16509;53.862;10.672;2022-08-19T07:48:46;52.90;;;21.50;;
29576;SDS011;16509;53.862;10.672;2022-08-19T07:51:14;54.70;;;21.00;;
29576;SDS011;16509;53.862;10.672;2022-08-19T07:53:43;59.70;;;22.02;;
29576;SDS011;16509;53.862;10.672;2022-08-19T07:56:10;55.10;;;21.10;;
29576;SDS011;16509;53.862;10.672;2022-08-19T07:58:40;59.10;;;22.60;;
29576;SDS011;16509;53.862;10.672;2022-08-19T08:01:09;54.47;;;20.92;;
29576;SDS011;16509;53.862;10.672;2022-08-19T08:03:37;53.25;;;20.08;;
29576;SDS011;16509;53.862;10.672;2022-08-19T08:06:21;52.00;;;18.90;;
29576;SDS011;16509;53.862;10.672;2022-08-19T08:09:07;60.20;;;22.20;;
29576;SDS011;16509;53.862;10.672;2022-08-19T08:11:36;59.72;;;21.67;;
29576;SDS011;16509;53.862;10.672;2022-08-19T08:14:03;51.22;;;19.88;;
29576;SDS011;16509;53.862;10.672;2022-08-19T08:16:30;53.13;;;20.95;;
29576;SDS011;16509;53.862;10.672;2022-08-19T08:18:58;50.05;;;18.10;;
29576;SDS011;16509;53.862;10.672;2022-08-19T08:21:24;57.10;;;20.30;;
29576;SDS011;16509;53.862;10.672;2022-08-19T08:23:50;63.05;;;22.63;;
29576;SDS011;16509;53.862;10.672;2022-08-19T08:26:17;61.67;;;22.50;;
29576;SDS011;16509;53.862;10.672;2022-08-19T08:28:42;53.65;;;20.95;;
29576;SDS011;16509;53.862;10.672;2022-08-19T08:31:08;54.25;;;22.13;;
29576;SDS011;16509;53.862;10.672;2022-08-19T08:33:34;54.92;;;21.80;;
29576;SDS011;16509;53.862;10.672;2022-08-19T08:36:00;58.30;;;22.40;;
29576;SDS011;16509;53.862;10.672;2022-08-19T08:38:32;59.25;;;21.30;;
29576;SDS011;16509;53.862;10.672;2022-08-19T08:41:04;62.70;;;23.20;;
29576;SDS011;16509;53.862;10.672;2022-08-19T08:43:39;62.40;;;21.95;;
29576;SDS011;16509;53.862;10.672;2022-08-19T08:46:10;56.33;;;22.17;;
29576;SDS011;16509;53.862;10.672;2022-08-19T08:51:41;58.13;;;22.65;;
29576;SDS011;16509;53.862;10.672;2022-08-19T08:54:14;62.22;;;23.70;;
29576;SDS011;16509;53.862;10.672;2022-08-19T08:56:43;57.22;;;22.40;;
29576;SDS011;16509;53.862;10.672;2022-08-19T09:01:51;57.65;;;21.02;;
29576;SDS011;16509;53.862;10.672;2022-08-19T09:04:17;58.30;;;22.50;;
29576;SDS011;16509;53.862;10.672;2022-08-19T09:07:00;62.13;;;24.35;;
29576;SDS011;16509;53.862;10.672;2022-08-19T09:09:45;63.35;;;22.77;;
29576;SDS011;16509;53.862;10.672;2022-08-19T09:12:30;64.28;;;22.75;;
29576;SDS011;16509;53.862;10.672;2022-08-19T09:14:57;62.60;;;24.65;;
29576;SDS011;16509;53.862;10.672;2022-08-19T09:17:27;70.03;;;24.88;;
29576;SDS011;16509;53.862;10.672;2022-08-19T09:22:46;71.93;;;24.80;;
29576;SDS011;16509;53.862;10.672;2022-08-19T09:25:14;69.65;;;23.35;;
29576;SDS011;16509;53.862;10.672;2022-08-19T09:27:42;73.40;;;25.60;;
29576;SDS011;16509;53.862;10.672;2022-08-19T09:30:10;66.85;;;24.65;;
29576;SDS011;16509;53.862;10.672;2022-08-19T09:32:38;74.95;;;24.80;;
29576;SDS011;16509;53.862;10.672;2022-08-19T09:35:06;77.40;;;28.25;;
29576;SDS011;16509;53.862;10.672;2022-08-19T09:37:32;71.63;;;24.17;;
29576;SDS011;16509;53.862;10.672;2022-08-19T09:39:58;80.53;;;27.13;;
29576;SDS011;16509;53.862;10.672;2022-08-19T09:42:24;83.57;;;26.83;;
29576;SDS011;16509;53.862;10.672;2022-08-19T09:44:49;72.88;;;23.30;;
29576;SDS011;16509;53.862;10.672;2022-08-19T09:47:15;63.80;;;24.55;;
29576;SDS011;16509;53.862;10.672;2022-08-19T09:49:40;73.10;;;27.02;;
29576;SDS011;16509;53.862;10.672;2022-08-19T09:52:10;81.15;;;25.23;;
29576;SDS011;16509;53.862;10.672;2022-08-19T09:54:37;79.88;;;27.10;;
29576;SDS011;16509;53.862;10.672;2022-08-19T09:57:03;76.28;;;26.75;;
29576;SDS011;16509;53.862;10.672;2022-08-19T09:59:29;71.15;;;25.52;;
29576;SDS011;16509;53.862;10.672;2022-08-19T10:01:55;79.50;;;28.00;;
29576;SDS011;16509;53.862;10.672;2022-08-19T10:04:21;84.30;;;26.92;;
29576;SDS011;16509;53.862;10.672;2022-08-19T10:06:48;77.65;;;27.00;;
29576;SDS011;16509;53.862;10.672;2022-08-19T10:09:15;81.32;;;27.80;;
29576;SDS011;16509;53.862;10.672;2022-08-19T10:11:43;69.00;;;24.50;;
29576;SDS011;16509;53.862;10.672;2022-08-19T10:14:14;76.50;;;26.55;;
29576;SDS011;16509;53.862;10.672;2022-08-19T10:16:41;78.90;;;26.17;;
29576;SDS011;16509;53.862;10.672;2022-08-19T10:19:08;78.53;;;25.10;;
29576;SDS011;16509;53.862;10.672;2022-08-19T10:21:34;78.82;;;25.63;;
29576;SDS011;16509;53.862;10.672;2022-08-19T10:24:02;76.60;;;22.23;;
29576;SDS011;16509;53.862;10.672;2022-08-19T10:26:31;86.93;;;26.67;;
29576;SDS011;16509;53.862;10.672;2022-08-19T10:28:59;65.90;;;24.35;;
29576;SDS011;16509;53.862;10.672;2022-08-19T10:31:26;68.07;;;25.30;;
29576;SDS011;16509;53.862;10.672;2022-08-19T10:33:54;73.32;;;25.67;;
29576;SDS011;16509;53.862;10.672;2022-08-19T10:36:23;66.15;;;25.80;;
29576;SDS011;16509;53.862;10.672;2022-08-19T10:38:52;68.10;;;24.63;;
29576;SDS011;16509;53.862;10.672;2022-08-19T10:41:22;64.30;;;25.17;;
29576;SDS011;16509;53.862;10.672;2022-08-19T10:43:53;62.47;;;24.35;;
29576;SDS011;16509;53.862;10.672;2022-08-19T10:46:22;64.05;;;23.38;;
29576;SDS011;16509;53.862;10.672;2022-08-19T10:48:49;57.30;;;20.17;;
29576;SDS011;16509;53.862;10.672;2022-08-19T10:51:15;64.00;;;21.17;;
29576;SDS011;16509;53.862;10.672;2022-08-19T10:54:00;55.47;;;21.52;;
29576;SDS011;16509;53.862;10.672;2022-08-19T10:56:26;52.30;;;19.77;;
29576;SDS011;16509;53.862;10.672;2022-08-19T10:59:11;59.65;;;20.92;;
29576;SDS011;16509;53.862;10.672;2022-08-19T11:01:40;51.10;;;21.10;;
29576;SDS011;16509;53.862;10.672;2022-08-19T11:04:06;57.80;;;21.63;;
29576;SDS011;16509;53.862;10.672;2022-08-19T11:06:38;50.55;;;19.90;;
29576;SDS011;16509;53.862;10.672;2022-08-19T11:09:08;47.67;;;20.45;;
29576;SDS011;16509;53.862;10.672;2022-08-19T11:11:34;55.45;;;20.90;;
29576;SDS011;16509;53.862;10.672;2022-08-19T11:14:06;61.03;;;21.57;;
29576;SDS011;16509;53.862;10.672;2022-08-19T11:16:32;61.53;;;21.20;;
29576;SDS011;16509;53.862;10.672;2022-08-19T11:18:59;58.33;;;22.02;;
29576;SDS011;16509;53.862;10.672;2022-08-19T11:21:29;59.13;;;21.27;;
29576;SDS011;16509;53.862;10.672;2022-08-19T11:24:07;51.88;;;21.00;;
29576;SDS011;16509;53.862;10.672;2022-08-19T11:26:38;51.22;;;20.88;;
29576;SDS011;16509;53.862;10.672;2022-08-19T11:29:05;52.05;;;20.52;;
29576;SDS011;16509;53.862;10.672;2022-08-19T11:31:33;51.65;;;20.80;;
29576;SDS011;16509;53.862;10.672;2022-08-19T11:34:05;57.42;;;22.27;;
29576;SDS011;16509;53.862;10.672;2022-08-19T11:36:32;49.75;;;20.95;;
29576;SDS011;16509;53.862;10.672;2022-08-19T11:38:58;55.25;;;21.05;;
29576;SDS011;16509;53.862;10.672;2022-08-19T11:41:24;48.25;;;20.52;;
29576;SDS011;16509;53.862;10.672;2022-08-19T11:43:51;47.25;;;20.10;;
29576;SDS011;16509;53.862;10.672;2022-08-19T11:46:19;50.25;;;19.17;;
29576;SDS011;16509;53.862;10.672;2022-08-19T11:48:45;48.03;;;19.98;;
29576;SDS011;16509;53.862;10.672;2022-08-19T11:51:13;48.55;;;19.90;;
29576;SDS011;16509;53.862;10.672;2022-08-19T11:53:40;45.63;;;19.27;;
29576;SDS011;16509;53.862;10.672;2022-08-19T11:56:07;47.95;;;21.10;;
29576;SDS011;16509;53.862;10.672;2022-08-19T11:58:33;43.75;;;18.83;;
29576;SDS011;16509;53.862;10.672;2022-08-19T12:01:00;47.65;;;20.25;;
29576;SDS011;16509;53.862;10.672;2022-08-19T12:03:26;49.42;;;21.00;;
29576;SDS011;16509;53.862;10.672;2022-08-19T12:05:52;46.58;;;19.67;;
29576;SDS011;16509;53.862;10.672;2022-08-19T12:10:48;45.53;;;19.60;;
29576;SDS011;16509;53.862;10.672;2022-08-19T12:13:14;47.30;;;20.58;;
29576;SDS011;16509;53.862;10.672;2022-08-19T12:15:46;50.38;;;19.73;;
29576;SDS011;16509;53.862;10.672;2022-08-19T12:18:12;46.58;;;21.02;;
29576;SDS011;16509;53.862;10.672;2022-08-19T12:20:39;48.72;;;20.58;;
29576;SDS011;16509;53.862;10.672;2022-08-19T12:23:07;54.40;;;21.27;;
29576;SDS011;16509;53.862;10.672;2022-08-19T12:25:37;48.00;;;20.02;;
29576;SDS011;16509;53.862;10.672;2022-08-19T12:28:08;57.60;;;22.92;;
29576;SDS011;16509;53.862;10.672;2022-08-19T12:30:34;56.97;;;22.02;;
29576;SDS011;16509;53.862;10.672;2022-08-19T12:33:02;45.17;;;19.17;;
29576;SDS011;16509;53.862;10.672;2022-08-19T12:35:28;54.80;;;21.25;;
29576;SDS011;16509;53.862;10.672;2022-08-19T12:37:55;43.17;;;20.35;;
29576;SDS011;16509;53.862;10.672;2022-08-19T12:40:21;47.05;;;19.50;;
29576;SDS011;16509;53.862;10.672;2022-08-19T12:42:46;46.10;;;19.63;;
29576;SDS011;16509;53.862;10.672;2022-08-19T12:45:14;49.53;;;19.58;;
29576;SDS011;16509;53.862;10.672;2022-08-19T12:47:40;43.90;;;19.15;;
29576;SDS011;16509;53.862;10.672;2022-08-19T12:50:06;42.53;;;20.65;;
29576;SDS011;16509;53.862;10.672;2022-08-19T12:52:33;44.45;;;18.88;;
29576;SDS011;16509;53.862;10.672;2022-08-19T12:55:02;38.40;;;17.38;;
29576;SDS011;16509;53.862;10.672;2022-08-19T12:57:31;40.10;;;19.25;;
29576;SDS011;16509;53.862;10.672;2022-08-19T13:00:00;43.63;;;19.05;;
29576;SDS011;16509;53.862;10.672;2022-08-19T13:02:34;43.13;;;18.80;;
29576;SDS011;16509;53.862;10.672;2022-08-19T13:05:01;41.40;;;18.45;;
29576;SDS011;16509;53.862;10.672;2022-08-19T13:07:27;41.15;;;18.42;;
29576;SDS011;16509;53.862;10.672;2022-08-19T13:09:53;44.20;;;19.88;;
29576;SDS011;16509;53.862;10.672;2022-08-19T13:12:18;41.10;;;18.25;;
29576;SDS011;16509;53.862;10.672;2022-08-19T13:14:46;38.30;;;18.75;;
29576;SDS011;16509;53.862;10.672;2022-08-19T13:17:15;41.72;;;19.35;;
29576;SDS011;16509;53.862;10.672;2022-08-19T13:19:41;48.38;;;20.65;;
29576;SDS011;16509;53.862;10.672;2022-08-19T13:22:07;47.10;;;19.90;;
29576;SDS011;16509;53.862;10.672;2022-08-19T13:24:33;40.33;;;19.63;;
29576;SDS011;16509;53.862;10.672;2022-08-19T13:26:59;45.75;;;19.55;;
29576;SDS011;16509;53.862;10.672;2022-08-19T13:29:25;40.45;;;19.45;;
29576;SDS011;16509;53.862;10.672;2022-08-19T13:32:09;43.67;;;19.10;;
29576;SDS011;16509;53.862;10.672;2022-08-19T13:34:53;37.08;;;18.02;;
29576;SDS011;16509;53.862;10.672;2022-08-19T13:37:19;41.05;;;20.00;;
29576;SDS011;16509;53.862;10.672;2022-08-19T13:40:05;39.63;;;20.05;;
29576;SDS011;16509;53.862;10.672;2022-08-19T13:42:45;36.45;;;18.70;;
29576;SDS011;16509;53.862;10.672;2022-08-19T13:45:12;43.75;;;19.27;;
29576;SDS011;16509;53.862;10.672;2022-08-19T13:47:40;37.65;;;18.67;;
29576;SDS011;16509;53.862;10.672;2022-08-19T13:50:13;39.75;;;20.33;;
29576;SDS011;16509;53.862;10.672;2022-08-19T13:52:43;35.55;;;18.70;;
29576;SDS011;16509;53.862;10.672;2022-08-19T13:55:09;36.47;;;18.40;;
29576;SDS011;16509;53.862;10.672;2022-08-19T13:57:36;41.97;;;19.13;;
29576;SDS011;16509;53.862;10.672;2022-08-19T14:00:12;33.25;;;17.17;;
29576;SDS011;16509;53.862;10.672;2022-08-19T14:02:43;36.15;;;17.92;;
29576;SDS011;16509;53.862;10.672;2022-08-19T14:05:10;34.55;;;18.60;;
29576;SDS011;16509;53.862;10.672;2022-08-19T14:07:36;38.05;;;17.55;;
29576;SDS011;16509;53.862;10.672;2022-08-19T14:10:02;38.17;;;18.85;;
29576;SDS011;16509;53.862;10.672;2022-08-19T14:12:31;37.55;;;17.90;;
29576;SDS011;16509;53.862;10.672;2022-08-19T14:14:57;34.90;;;17.42;;
29576;SDS011;16509;53.862;10.672;2022-08-19T14:17:23;38.08;;;18.52;;
29576;SDS011;16509;53.862;10.672;2022-08-19T14:19:55;35.10;;;17.80;;
29576;SDS011;16509;53.862;10.672;2022-08-19T14:24:48;31.67;;;16.70;;
29576;SDS011;16509;53.862;10.672;2022-08-19T14:27:15;34.72;;;18.13;;
29576;SDS011;16509;53.862;10.672;2022-08-19T14:29:41;34.42;;;16.95;;
29576;SDS011;16509;53.862;10.672;2022-08-19T14:32:07;37.28;;;18.02;;